Time;durP1;ratioP1;P1;durP2;ratioP2;P2;SDS_P1;SDS_P2;PMS_P1;PMS_P2;Temp;Humidity;BMP_temperature;BMP_pressure;BME280_temperature;BME280_humidity;BME280_pressure;Samples;Min_cycle;Max_cycle;Signal;HPM_P1;HPM_P2
2023/06/30 00:01:27;;;;;;;18.60;9.40;;;;;;;14.25;73.01;96974.50;108114;1240;96983;-69
2023/06/30 00:03:53;;;;;;;13.20;9.50;;;;;;;14.21;73.07;96973.39;108104;1237;96534;-69
2023/06/30 00:06:20;;;;;;;12.20;9.30;;;;;;;14.10;72.94;96972.82;108173;1240;97442;-69
2023/06/30 00:08:48;;;;;;;13.60;10.10;;;;;;;14.00;73.35;96967.83;108095;1239;96757;-69
2023/06/30 00:11:14;;;;;;;12.60;10.10;;;;;;;13.99;73.66;96966.61;107693;1234;97181;-69
2023/06/30 00:13:41;;;;;;;13.30;9.80;;;;;;;14.00;73.73;96967.83;107973;1246;97080;-70
2023/06/30 00:16:07;;;;;;;11.50;9.70;;;;;;;13.98;73.61;96969.75;108086;1240;97479;-69
2023/06/30 00:18:33;;;;;;;15.60;9.10;;;;;;;13.96;73.54;96970.55;108229;1239;96541;-68
2023/06/30 00:21:01;;;;;;;11.50;9.40;;;;;;;13.85;73.54;96970.95;108140;1237;97346;-69
2023/06/30 00:23:28;;;;;;;12.60;9.10;;;;;;;13.75;73.70;96973.41;107736;1243;96622;-68
2023/06/30 00:25:55;;;;;;;12.60;8.80;;;;;;;13.71;73.91;96971.98;108058;1237;96590;-69
2023/06/30 00:28:21;;;;;;;11.50;9.10;;;;;;;13.70;73.90;96971.45;107697;1242;96832;-69
2023/06/30 00:30:48;;;;;;;10.10;9.00;;;;;;;13.69;74.01;96973.23;108030;1239;97782;-69
2023/06/30 00:33:14;;;;;;;13.00;9.20;;;;;;;13.68;73.85;96971.91;108171;1237;96814;-69
2023/06/30 00:35:40;;;;;;;13.80;9.70;;;;;;;13.67;73.95;96972.11;108067;1246;99915;-69
2023/06/30 00:38:07;;;;;;;12.40;9.20;;;;;;;13.57;73.87;96968.27;108145;1247;97483;-69
2023/06/30 00:40:33;;;;;;;10.30;8.90;;;;;;;13.50;73.96;96964.84;108000;1239;97657;-69
2023/06/30 00:43:00;;;;;;;10.90;9.70;;;;;;;13.47;74.09;96967.22;108199;1246;96620;-69
2023/06/30 00:45:30;;;;;;;10.70;9.50;;;;;;;13.46;74.34;96966.42;107661;1242;101006;-72
2023/06/30 00:47:56;;;;;;;11.40;8.90;;;;;;;13.44;74.32;96963.98;108041;1240;98486;-69
2023/06/30 00:50:23;;;;;;;11.90;9.30;;;;;;;13.41;74.38;96961.77;107593;1249;96619;-69
2023/06/30 00:52:50;;;;;;;11.40;8.80;;;;;;;13.42;74.40;96962.86;108089;1239;97457;-69
2023/06/30 00:55:17;;;;;;;11.80;9.40;;;;;;;13.43;74.49;96959.74;108037;1246;97454;-70
2023/06/30 00:57:44;;;;;;;15.40;9.20;;;;;;;13.43;74.46;96963.10;108343;1239;96631;-69
2023/06/30 01:00:11;;;;;;;11.50;9.10;;;;;;;13.41;74.38;96958.23;108131;1239;96557;-69
2023/06/30 01:02:46;;;;;;;13.10;9.00;;;;;;;13.40;74.46;96957.15;107956;1242;97013;-70
2023/06/30 01:05:24;;;;;;;12.50;9.20;;;;;;;13.40;74.55;96952.16;108132;1239;100093;-69
2023/06/30 01:08:01;;;;;;;9.30;8.30;;;;;;;13.39;74.42;96948.73;108167;1242;100193;-70
2023/06/30 01:10:30;;;;;;;15.40;9.30;;;;;;;13.40;74.47;96948.14;108156;1238;98966;-69
2023/06/30 01:12:58;;;;;;;12.30;9.20;;;;;;;13.37;74.61;96944.13;107781;1242;97429;-70
2023/06/30 01:15:24;;;;;;;13.60;10.20;;;;;;;13.30;74.61;96940.08;107590;1244;97097;-69
2023/06/30 01:17:59;;;;;;;12.10;10.50;;;;;;;13.20;74.63;96941.75;107681;1242;96726;-71
2023/06/30 01:20:30;;;;;;;12.10;9.30;;;;;;;13.15;74.77;96937.11;107576;1245;101679;-70
2023/06/30 01:23:12;;;;;;;14.20;9.70;;;;;;;13.12;74.86;96938.05;107321;1245;109434;-70
2023/06/30 01:25:39;;;;;;;11.80;9.90;;;;;;;13.07;74.98;96940.46;107330;1253;97122;-69
2023/06/30 01:28:07;;;;;;;13.90;9.30;;;;;;;13.06;75.02;96944.23;107399;1245;97669;-70
2023/06/30 01:30:34;;;;;;;12.40;9.10;;;;;;;13.03;75.04;96939.09;107510;1241;102196;-83
2023/06/30 01:33:00;;;;;;;13.30;9.20;;;;;;;13.05;75.10;96942.38;107241;1241;97882;-83
2023/06/30 01:35:28;;;;;;;11.60;8.40;;;;;;;13.05;74.95;96942.21;107051;1257;96697;-84
2023/06/30 01:37:56;;;;;;;9.80;8.80;;;;;;;13.03;74.97;96940.77;106669;1248;97727;-83
2023/06/30 01:40:23;;;;;;;16.30;9.10;;;;;;;13.03;74.99;96941.16;106707;1248;96809;-89
2023/06/30 01:42:57;;;;;;;10.80;8.50;;;;;;;13.00;74.86;96940.83;107147;1256;97051;-83
2023/06/30 01:45:28;;;;;;;9.90;8.80;;;;;;;12.98;74.92;96944.40;107367;1241;101769;-84
2023/06/30 01:47:56;;;;;;;11.60;8.60;;;;;;;12.91;75.01;96944.33;107690;1240;100063;-68
2023/06/30 01:50:24;;;;;;;8.80;8.00;;;;;;;12.87;75.17;96939.52;107605;1237;96625;-69
2023/06/30 01:52:51;;;;;;;9.50;8.60;;;;;;;12.88;75.19;96941.10;108120;1240;97007;-70
2023/06/30 01:55:17;;;;;;;11.80;8.30;;;;;;;12.87;75.00;96940.75;108134;1238;96606;-69
2023/06/30 01:57:43;;;;;;;13.70;9.30;;;;;;;12.80;74.97;96938.53;108037;1247;96661;-69
2023/06/30 02:00:10;;;;;;;11.50;9.40;;;;;;;12.70;75.22;96935.05;108150;1247;97779;-70
2023/06/30 02:02:37;;;;;;;12.90;9.60;;;;;;;12.59;75.39;96938.11;108168;1238;97069;-69
2023/06/30 02:05:03;;;;;;;13.00;9.30;;;;;;;12.54;75.60;96943.67;108076;1239;97673;-69
2023/06/30 02:07:30;;;;;;;10.60;9.40;;;;;;;12.55;75.68;96938.39;108099;1248;96550;-69
2023/06/30 02:09:56;;;;;;;10.00;8.90;;;;;;;12.57;75.87;96937.15;108196;1237;96537;-68
2023/06/30 02:12:22;;;;;;;12.90;9.90;;;;;;;12.57;75.79;96933.64;108274;1237;96952;-69
2023/06/30 02:14:49;;;;;;;12.80;9.50;;;;;;;12.57;75.82;96936.27;107903;1247;96541;-69
2023/06/30 02:17:15;;;;;;;9.60;8.40;;;;;;;12.56;75.65;96934.66;107974;1239;97781;-84
2023/06/30 02:19:41;;;;;;;13.20;9.20;;;;;;;12.54;75.59;96938.00;108196;1249;96552;-83
2023/06/30 02:22:08;;;;;;;13.00;9.00;;;;;;;12.51;75.65;96936.56;107974;1237;97095;-83
2023/06/30 02:24:34;;;;;;;13.10;9.60;;;;;;;12.49;75.82;96936.95;107978;1237;97526;-83
2023/06/30 02:27:00;;;;;;;10.80;8.20;;;;;;;12.47;75.72;96928.79;108184;1239;97771;-83
2023/06/30 02:29:27;;;;;;;11.90;9.40;;;;;;;12.47;75.63;96931.21;107976;1246;96538;-82
2023/06/30 02:31:53;;;;;;;11.20;9.10;;;;;;;12.44;75.76;96930.23;108037;1235;97652;-84
2023/06/30 02:34:19;;;;;;;10.40;8.50;;;;;;;12.42;75.73;96929.80;107844;1247;96558;-87
2023/06/30 02:36:48;;;;;;;9.90;8.70;;;;;;;12.39;75.83;96927.14;107916;1237;96471;-86
2023/06/30 02:39:14;;;;;;;12.20;9.70;;;;;;;12.40;75.84;96929.00;107952;1246;97457;-84
2023/06/30 02:43:05;;;;;;;12.60;9.50;;;;;;;12.40;75.86;96928.62;102354;1296;636067;-81
2023/06/30 02:45:32;;;;;;;10.00;8.90;;;;;;;12.38;75.79;96933.40;104788;1264;97094;-81
2023/06/30 02:49:11;;;;;;;10.80;9.70;;;;;;;12.40;75.75;96934.78;102133;1297;636021;-81
2023/06/30 02:51:38;;;;;;;13.00;9.10;;;;;;;12.35;75.89;96937.25;104195;1271;96111;-81
2023/06/30 02:54:06;;;;;;;13.60;9.60;;;;;;;12.35;76.00;96937.52;104229;1266;96784;-80
2023/06/30 02:56:34;;;;;;;11.10;9.30;;;;;;;12.33;76.00;96932.98;104238;1266;100388;-80
2023/06/30 02:59:02;;;;;;;11.00;9.20;;;;;;;12.34;76.10;96937.38;104265;1266;101677;-80
2023/06/30 03:01:29;;;;;;;13.40;9.70;;;;;;;12.31;76.14;96933.91;104227;1272;100631;-81
2023/06/30 03:03:58;;;;;;;10.70;9.60;;;;;;;12.24;76.30;96933.84;104273;1264;297076;-82
2023/06/30 03:06:25;;;;;;;10.20;9.10;;;;;;;12.14;76.31;96932.89;104443;1268;95862;-81
2023/06/30 03:08:53;;;;;;;12.70;9.80;;;;;;;12.04;76.46;96932.05;104258;1269;98979;-79
2023/06/30 03:11:21;;;;;;;12.00;10.10;;;;;;;11.95;76.76;96931.39;104400;1268;100068;-81
2023/06/30 03:13:49;;;;;;;12.10;10.60;;;;;;;11.90;77.08;96934.71;105080;1267;99004;-80
2023/06/30 03:16:17;;;;;;;13.30;10.50;;;;;;;11.89;77.24;96935.14;105005;1268;96569;-80
2023/06/30 03:21:17;;;;;;;14.40;11.20;;;;;;;11.98;77.64;96930.55;102103;1304;635934;-81
2023/06/30 03:23:45;;;;;;;15.80;10.80;;;;;;;12.02;77.54;96928.75;104483;1280;95942;-79
2023/06/30 03:26:14;;;;;;;17.40;10.80;;;;;;;12.07;77.53;96929.54;104476;1267;95833;-82
2023/06/30 03:28:41;;;;;;;15.20;10.20;;;;;;;12.10;77.41;96929.98;104186;1282;100502;-80
2023/06/30 03:31:09;;;;;;;17.60;10.40;;;;;;;12.11;77.37;96929.30;104179;1270;100501;-80
2023/06/30 03:33:37;;;;;;;12.90;10.20;;;;;;;12.10;77.35;96925.13;104403;1286;109733;-82
2023/06/30 03:36:05;;;;;;;11.50;8.80;;;;;;;12.12;77.33;96926.95;105058;1258;154600;-80
2023/06/30 03:38:32;;;;;;;12.40;10.80;;;;;;;12.14;77.35;96925.01;105001;1270;95902;-79
2023/06/30 03:41:00;;;;;;;14.80;10.20;;;;;;;12.17;77.33;96923.61;105071;1254;100301;-81
2023/06/30 03:43:28;;;;;;;12.50;9.80;;;;;;;12.18;77.40;96921.21;105181;1257;102246;-81
2023/06/30 03:45:55;;;;;;;17.40;11.10;;;;;;;12.21;77.39;96924.64;105036;1270;100760;-79
2023/06/30 03:48:23;;;;;;;15.50;10.70;;;;;;;12.24;77.62;96926.77;105090;1253;97164;-81
2023/06/30 03:50:54;;;;;;;16.60;11.70;;;;;;;12.28;77.74;96924.80;104957;1267;96177;-81
2023/06/30 03:53:23;;;;;;;16.00;11.20;;;;;;;12.33;77.91;96926.73;105277;1254;101570;-80
2023/06/30 03:55:50;;;;;;;19.20;12.00;;;;;;;12.38;77.80;96928.13;105095;1257;102247;-81
2023/06/30 03:58:18;;;;;;;17.60;13.00;;;;;;;12.41;78.09;96927.36;105167;1257;100821;-79
2023/06/30 04:00:46;;;;;;;14.60;11.70;;;;;;;12.44;78.20;96924.48;105015;1254;96152;-79
2023/06/30 04:03:14;;;;;;;14.70;11.80;;;;;;;12.48;78.21;96926.20;104952;1270;95815;-80
2023/06/30 04:05:42;;;;;;;15.60;13.00;;;;;;;12.52;78.39;96919.64;104934;1254;101532;-81
2023/06/30 04:08:09;;;;;;;16.90;11.60;;;;;;;12.56;78.50;96915.41;105009;1258;109510;-81
2023/06/30 04:10:37;;;;;;;21.40;12.90;;;;;;;12.61;78.57;96916.88;105033;1254;100732;-80
2023/06/30 04:13:08;;;;;;;16.30;12.80;;;;;;;12.66;78.50;96915.10;104941;1257;95853;-78
2023/06/30 04:15:36;;;;;;;15.70;12.10;;;;;;;12.71;78.60;96914.00;104899;1260;95872;-80
2023/06/30 04:18:04;;;;;;;14.60;12.30;;;;;;;12.74;78.47;96910.60;105103;1257;101726;-80
2023/06/30 04:20:32;;;;;;;18.60;12.80;;;;;;;12.77;78.62;96914.09;105012;1257;102307;-79
2023/06/30 04:23:00;;;;;;;15.00;12.20;;;;;;;12.81;78.65;96910.05;104960;1260;100792;-80
2023/06/30 04:25:27;;;;;;;14.80;12.00;;;;;;;12.86;78.85;96905.45;104956;1266;95825;-80
2023/06/30 08:09:39;;;;;;;4.70;4.20;;;;;;;23.53;60.10;96780.55;105572;1265;99433;-77
2023/06/30 08:12:06;;;;;;;;;;;;;;;24.00;59.48;96778.89;107536;1243;99912;-80
2023/06/30 08:14:33;;;;;;;4.50;4.10;;;;;;;24.48;58.32;96775.52;108134;1237;100368;-80
2023/06/30 08:16:59;;;;;;;4.90;3.60;;;;;;;24.92;57.43;96774.00;107988;1237;96106;-83
2023/06/30 08:19:26;;;;;;;4.10;3.70;;;;;;;25.31;56.30;96776.72;108246;1232;96685;-81
2023/06/30 08:21:52;;;;;;;6.40;3.40;;;;;;;25.63;55.02;96776.00;108220;1237;95866;-80
2023/06/30 08:24:18;;;;;;;4.10;3.30;;;;;;;25.65;54.38;96777.40;108079;1237;100492;-79
2023/06/30 08:26:44;;;;;;;6.00;3.50;;;;;;;25.55;53.98;96781.15;107992;1247;97034;-79
2023/06/30 08:29:11;;;;;;;4.10;3.40;;;;;;;25.60;53.51;96782.28;108031;1244;95869;-79
2023/06/30 08:31:37;;;;;;;3.90;3.20;;;;;;;25.48;52.90;96785.02;108078;1244;95856;-80
2023/06/30 08:34:04;;;;;;;5.50;2.90;;;;;;;25.23;52.60;96785.50;108020;1241;98327;-80
2023/06/30 08:36:31;;;;;;;8.10;3.70;;;;;;;25.04;52.63;96779.10;107961;1237;95806;-79
2023/06/30 08:38:57;;;;;;;4.70;3.00;;;;;;;25.19;52.63;96780.28;107969;1236;96773;-80
2023/06/30 08:41:25;;;;;;;4.10;3.10;;;;;;;25.60;52.24;96774.55;108008;1236;95850;-79
2023/06/30 08:43:53;;;;;;;3.30;2.80;;;;;;;25.82;51.43;96772.92;108027;1241;95774;-79
2023/06/30 08:46:22;;;;;;;3.80;2.70;;;;;;;25.76;50.92;96772.48;108038;1240;96965;-82
2023/06/30 08:48:50;;;;;;;3.80;2.80;;;;;;;26.09;50.38;96767.02;107511;1240;95871;-83
2023/06/30 08:51:18;;;;;;;4.00;2.60;;;;;;;26.36;49.41;96765.98;108185;1237;96076;-81
2023/06/30 08:53:51;;;;;;;3.00;2.70;;;;;;;26.59;48.90;96764.60;107675;1232;101567;-82
2023/06/30 08:56:18;;;;;;;3.20;2.70;;;;;;;26.88;48.33;96767.67;108212;1236;102073;-82
2023/06/30 08:58:45;;;;;;;3.60;2.90;;;;;;;27.03;47.71;96763.48;108185;1232;96715;-81
2023/06/30 09:01:13;;;;;;;4.50;3.20;;;;;;;27.41;47.56;96756.91;108199;1246;95827;-81
2023/06/30 09:03:40;;;;;;;5.30;2.40;;;;;;;27.85;47.17;96757.66;108024;1232;95763;-82
2023/06/30 09:06:09;;;;;;;3.50;2.70;;;;;;;28.28;46.29;96757.46;108168;1246;96231;-81
2023/06/30 09:09:05;;;;;;;3.30;2.40;;;;;;;28.77;45.44;96757.70;108171;1232;101959;-81
2023/06/30 09:11:37;;;;;;;4.20;2.20;;;;;;;28.90;44.86;96754.15;108178;1237;100602;-80
2023/06/30 09:14:04;;;;;;;5.00;2.20;;;;;;;28.64;44.75;96750.61;108116;1236;96711;-79
2023/06/30 09:16:31;;;;;;;4.90;2.40;;;;;;;28.43;44.13;96745.86;108045;1234;97211;-81
2023/06/30 09:18:58;;;;;;;6.00;2.80;;;;;;;28.51;43.94;96743.23;108141;1238;97424;-80
2023/06/30 09:21:24;;;;;;;5.40;2.50;;;;;;;28.73;43.42;96743.12;108005;1237;96634;-79
2023/06/30 09:23:51;;;;;;;4.00;2.70;;;;;;;28.67;43.10;96744.89;107564;1241;96649;-78
2023/06/30 09:26:18;;;;;;;2.50;2.30;;;;;;;28.73;42.88;96734.64;108048;1237;96613;-80
2023/06/30 09:28:46;;;;;;;2.50;2.30;;;;;;;28.71;42.68;96733.05;108029;1238;102865;-80
2023/06/30 09:31:12;;;;;;;3.40;2.80;;;;;;;28.73;42.58;96731.69;108022;1237;102062;-79
2023/06/30 09:33:40;;;;;;;6.20;2.70;;;;;;;28.66;42.30;96730.03;107974;1237;97738;-79
2023/06/30 09:36:07;;;;;;;5.50;2.70;;;;;;;28.48;41.95;96728.45;107728;1237;97040;-80
2023/06/30 09:38:35;;;;;;;3.00;2.70;;;;;;;28.29;42.22;96726.13;108019;1233;96516;-80
2023/06/30 09:41:04;;;;;;;3.10;2.80;;;;;;;28.20;41.96;96723.99;107724;1241;96765;-80
2023/06/30 09:43:31;;;;;;;3.30;2.40;;;;;;;28.27;42.02;96726.23;107749;1239;102008;-80
2023/06/30 09:46:00;;;;;;;7.10;3.10;;;;;;;28.44;42.12;96732.05;107796;1241;97751;-82
2023/06/30 09:48:34;;;;;;;2.90;2.20;;;;;;;28.52;41.60;96729.61;107219;1247;97814;-82
2023/06/30 09:51:01;;;;;;;3.80;2.80;;;;;;;28.53;41.15;96728.01;107609;1241;98049;-82
2023/06/30 09:53:36;;;;;;;2.80;2.50;;;;;;;28.29;40.75;96725.79;107636;1242;97094;-82
2023/06/30 09:56:03;;;;;;;3.40;2.70;;;;;;;28.00;40.44;96728.04;107662;1239;102036;-79
2023/06/30 09:58:30;;;;;;;2.90;2.50;;;;;;;27.95;41.06;96724.27;107381;1244;96840;-79
2023/06/30 10:00:57;;;;;;;8.90;3.00;;;;;;;28.01;41.72;96717.39;107341;1250;96786;-79
2023/06/30 10:03:24;;;;;;;6.10;2.70;;;;;;;28.27;41.78;96717.33;107374;1242;98122;-81
2023/06/30 10:05:52;;;;;;;5.60;3.00;;;;;;;28.41;41.24;96718.36;107764;1239;96631;-79
2023/06/30 10:08:22;;;;;;;6.90;2.70;;;;;;;28.21;41.13;96712.48;107700;1237;97391;-79
2023/06/30 10:10:53;;;;;;;8.00;2.90;;;;;;;27.96;41.22;96710.14;107599;1239;107884;-80
2023/06/30 10:13:20;;;;;;;4.70;2.60;;;;;;;27.84;41.32;96708.02;107460;1251;97529;-81
2023/06/30 10:15:46;;;;;;;5.00;2.50;;;;;;;27.72;40.87;96709.27;107716;1240;97051;-79
2023/06/30 10:18:16;;;;;;;6.00;3.10;;;;;;;27.56;41.05;96706.01;107601;1248;96791;-79
2023/06/30 10:20:45;;;;;;;4.60;2.90;;;;;;;27.42;40.97;96704.34;108010;1234;102115;-82
2023/06/30 10:23:12;;;;;;;3.30;2.70;;;;;;;27.26;41.06;96702.55;108162;1246;100660;-81
2023/06/30 10:25:39;;;;;;;5.50;2.70;;;;;;;27.08;41.38;96701.81;108176;1232;96742;-81
2023/06/30 10:28:06;;;;;;;3.40;2.50;;;;;;;26.89;41.17;96702.77;108192;1237;96525;-81
2023/06/30 10:30:35;;;;;;;2.90;2.60;;;;;;;26.75;41.13;96698.04;108200;1241;97836;-81
2023/06/30 10:33:01;;;;;;;7.90;2.40;;;;;;;26.65;42.09;96698.84;108387;1236;102483;-81
2023/06/30 10:35:29;;;;;;;2.90;2.60;;;;;;;26.51;43.26;96698.46;108203;1238;96536;-81
2023/06/30 10:37:56;;;;;;;4.40;3.00;;;;;;;26.26;44.04;96696.21;108189;1236;97736;-81
2023/06/30 10:40:28;;;;;;;3.20;2.50;;;;;;;26.05;44.48;96697.23;108210;1236;97682;-81
2023/06/30 10:42:57;;;;;;;4.80;2.90;;;;;;;25.81;44.32;96695.23;108203;1232;101149;-81
2023/06/30 10:45:30;;;;;;;5.90;2.70;;;;;;;25.67;44.60;96699.55;107776;1240;102148;-81
2023/06/30 10:47:57;;;;;;;4.30;2.90;;;;;;;25.61;44.74;96699.67;108007;1238;100602;-81
2023/06/30 10:50:24;;;;;;;4.20;2.90;;;;;;;25.56;45.40;96696.80;108168;1245;97446;-81
2023/06/30 10:52:51;;;;;;;3.90;2.50;;;;;;;25.48;46.33;96695.20;108191;1237;96531;-81
2023/06/30 10:55:27;;;;;;;3.70;2.70;;;;;;;25.37;46.49;96693.66;108307;1237;97372;-80
2023/06/30 10:57:54;;;;;;;3.60;3.10;;;;;;;25.27;46.51;96693.48;108263;1239;102079;-81
2023/06/30 11:00:24;;;;;;;5.90;3.10;;;;;;;25.23;46.41;96698.91;108126;1246;97840;-81
2023/06/30 11:02:58;;;;;;;3.70;3.30;;;;;;;25.21;46.42;96688.65;107617;1232;97854;-81
2023/06/30 11:05:33;;;;;;;4.50;3.20;;;;;;;25.22;47.61;96691.86;107666;1247;97958;-81
2023/06/30 11:08:02;;;;;;;6.60;3.80;;;;;;;25.21;48.91;96688.55;107954;1244;102670;-81
2023/06/30 11:10:32;;;;;;;3.90;3.40;;;;;;;25.38;49.41;96687.01;108101;1246;102016;-80
2023/06/30 11:13:00;;;;;;;5.90;3.50;;;;;;;25.71;48.14;96686.09;108146;1246;100629;-83
2023/06/30 11:15:45;;;;;;;4.70;3.90;;;;;;;25.99;47.04;96685.15;108189;1237;97762;-80
2023/06/30 11:18:20;;;;;;;13.20;4.20;;;;;;;26.29;46.46;96684.16;108240;1237;96518;-80
2023/06/30 11:21:06;;;;;;;3.40;3.10;;;;;;;26.55;45.91;96682.02;108194;1247;101124;-80
2023/06/30 11:23:38;;;;;;;4.00;2.80;;;;;;;26.88;46.41;96678.73;108172;1237;102122;-80
2023/06/30 11:26:23;;;;;;;3.50;2.90;;;;;;;27.26;45.70;96673.94;108132;1245;100652;-80
2023/06/30 11:28:49;;;;;;;6.50;3.40;;;;;;;27.45;44.61;96669.23;108147;1236;97731;-80
2023/06/30 11:31:17;;;;;;;3.00;2.70;;;;;;;27.46;44.30;96667.69;108113;1234;96992;-80
2023/06/30 11:33:46;;;;;;;5.10;3.20;;;;;;;27.38;44.14;96671.48;108134;1237;97665;-80
2023/06/30 11:36:17;;;;;;;4.30;3.00;;;;;;;27.26;43.87;96670.23;107626;1243;102143;-80
2023/06/30 11:38:51;;;;;;;4.50;3.10;;;;;;;27.12;43.57;96668.81;108211;1245;100740;-80
2023/06/30 11:41:21;;;;;;;4.70;3.20;;;;;;;26.99;43.45;96670.19;108164;1237;96534;-80
2023/06/30 11:43:53;;;;;;;6.20;3.60;;;;;;;26.87;43.34;96670.17;107842;1232;97150;-80
2023/06/30 11:46:20;;;;;;;4.40;3.10;;;;;;;26.75;43.28;96670.22;108027;1237;102958;-80
2023/06/30 11:48:48;;;;;;;4.70;3.10;;;;;;;26.64;43.20;96667.93;107588;1238;96598;-79
2023/06/30 11:51:15;;;;;;;4.50;3.40;;;;;;;26.55;43.30;96667.88;108049;1237;100788;-80
2023/06/30 11:53:48;;;;;;;5.60;3.50;;;;;;;26.49;43.38;96669.68;108020;1241;96634;-80
2023/06/30 11:56:14;;;;;;;3.70;2.90;;;;;;;26.44;43.25;96663.23;108068;1244;97424;-80
2023/06/30 11:58:48;;;;;;;4.00;3.20;;;;;;;26.41;43.38;96665.10;108007;1236;96529;-79
2023/06/30 12:01:14;;;;;;;4.90;3.10;;;;;;;26.36;43.88;96663.94;108059;1239;102093;-81
2023/06/30 12:03:40;;;;;;;4.80;3.10;;;;;;;26.28;43.64;96663.46;108159;1234;96546;-81
2023/06/30 12:06:07;;;;;;;5.40;3.50;;;;;;;26.17;43.62;96662.15;108245;1236;96571;-80
2023/06/30 12:08:37;;;;;;;5.60;3.20;;;;;;;26.11;43.64;96661.89;108099;1232;96538;-80
2023/06/30 12:11:04;;;;;;;5.20;3.10;;;;;;;26.04;43.65;96657.95;111563;1232;101880;-80
2023/06/30 12:13:30;;;;;;;3.90;2.90;;;;;;;25.94;43.58;96659.56;111496;1232;94164;-80
2023/06/30 12:15:57;;;;;;;3.10;2.70;;;;;;;25.79;43.72;96658.58;111560;1232;94113;-80
2023/06/30 12:18:30;;;;;;;3.80;3.00;;;;;;;25.69;43.68;96661.90;111579;1232;94544;-80
2023/06/30 12:20:57;;;;;;;4.70;2.90;;;;;;;25.67;43.69;96656.77;111628;1233;102289;-81
2023/06/30 12:23:27;;;;;;;4.10;3.30;;;;;;;25.68;43.63;96654.52;111643;1234;94151;-80
2023/06/30 12:25:57;;;;;;;3.80;3.20;;;;;;;25.70;43.96;96654.46;111564;1232;99581;-80
2023/06/30 12:28:23;;;;;;;3.90;2.90;;;;;;;25.73;44.77;96652.46;111570;1232;94321;-80
2023/06/30 12:30:50;;;;;;;5.10;3.50;;;;;;;25.75;44.36;96650.09;111613;1236;95101;-80
2023/06/30 12:33:20;;;;;;;2.90;2.60;;;;;;;25.75;43.96;96647.88;111512;1232;94552;-80
2023/06/30 12:35:50;;;;;;;4.00;2.90;;;;;;;25.76;44.01;96645.48;111585;1232;101448;-80
2023/06/30 12:38:18;;;;;;;3.50;3.20;;;;;;;25.78;44.06;96642.80;111394;1232;107347;-80
2023/06/30 12:40:44;;;;;;;3.30;3.00;;;;;;;25.77;43.85;96645.70;111411;1232;94214;-81
2023/06/30 12:43:10;;;;;;;3.00;2.70;;;;;;;25.75;44.05;96642.58;111481;1232;94432;-80
2023/06/30 12:45:37;;;;;;;3.60;3.10;;;;;;;25.73;44.95;96637.52;111445;1232;94201;-81
2023/06/30 12:48:03;;;;;;;4.70;3.20;;;;;;;25.67;45.13;96631.19;111524;1232;94639;-81
2023/06/30 12:50:30;;;;;;;4.70;3.10;;;;;;;25.63;45.47;96629.48;111437;1232;94570;-80
2023/06/30 12:52:57;;;;;;;7.90;6.20;;;;;;;25.60;45.52;96631.62;111486;1233;94130;-80
2023/06/30 12:55:23;;;;;;;4.10;3.70;;;;;;;25.57;45.53;96631.76;111570;1232;94223;-80
2023/06/30 12:57:50;;;;;;;4.30;3.90;;;;;;;25.55;45.51;96631.78;111623;1231;94420;-80
2023/06/30 13:00:16;;;;;;;6.90;4.80;;;;;;;25.50;46.11;96630.05;111576;1232;94139;-81
2023/06/30 13:02:43;;;;;;;9.70;6.60;;;;;;;25.42;46.94;96630.97;111621;1232;94507;-80
2023/06/30 13:05:09;;;;;;;6.60;5.10;;;;;;;25.34;47.99;96627.73;111600;1232;94167;-80
2023/06/30 13:07:36;;;;;;;4.70;4.20;;;;;;;25.26;48.81;96624.02;111601;1232;94137;-80
2023/06/30 13:10:04;;;;;;;5.60;3.60;;;;;;;25.17;49.92;96619.46;111613;1232;94197;-80
2023/06/30 13:12:31;;;;;;;5.00;3.60;;;;;;;25.11;50.38;96616.77;111563;1232;94113;-80
2023/06/30 13:14:58;;;;;;;5.00;3.20;;;;;;;25.07;50.73;96615.39;111614;1232;94246;-80
2023/06/30 13:17:25;;;;;;;6.80;3.30;;;;;;;25.03;51.15;96613.77;111616;1232;94142;-80
2023/06/30 13:19:51;;;;;;;4.80;3.80;;;;;;;24.96;51.94;96611.77;111546;1232;94116;-80
2023/06/30 13:22:18;;;;;;;4.60;3.80;;;;;;;24.93;51.96;96609.81;111667;1232;94123;-80
2023/06/30 13:24:44;;;;;;;4.40;3.90;;;;;;;24.93;52.75;96606.54;111583;1232;110674;-80
2023/06/30 13:27:11;;;;;;;4.80;3.30;;;;;;;24.96;53.57;96603.33;111620;1232;94167;-80
2023/06/30 13:29:51;;;;;;;5.30;3.30;;;;;;;24.96;53.95;96602.10;111548;1232;94145;-80
2023/06/30 13:32:18;;;;;;;4.70;3.30;;;;;;;24.98;53.78;96595.48;111535;1232;94161;-80
2023/06/30 13:34:46;;;;;;;4.10;3.30;;;;;;;25.04;53.59;96592.75;111622;1232;94111;-80
2023/06/30 13:37:12;;;;;;;4.40;3.50;;;;;;;25.10;53.44;96592.59;111575;1232;100821;-80
2023/06/30 13:39:39;;;;;;;7.70;3.40;;;;;;;25.18;53.12;96592.30;111566;1232;94123;-80
2023/06/30 13:42:07;;;;;;;5.30;3.30;;;;;;;25.25;52.78;96590.52;111534;1232;94127;-80
2023/06/30 13:44:34;;;;;;;5.10;3.30;;;;;;;25.35;52.19;96591.35;111596;1232;94147;-80
2023/06/30 13:47:01;;;;;;;3.40;2.90;;;;;;;25.46;51.33;96590.98;111650;1232;94490;-80
2023/06/30 13:49:27;;;;;;;5.90;3.80;;;;;;;25.59;50.38;96582.79;111602;1232;94118;-81
2023/06/30 13:51:54;;;;;;;3.50;3.00;;;;;;;25.74;49.60;96574.23;111689;1232;94579;-81
2023/06/30 13:54:22;;;;;;;3.90;3.10;;;;;;;25.86;49.89;96576.17;111559;1232;94192;-80
2023/06/30 13:56:48;;;;;;;4.00;2.80;;;;;;;25.99;49.61;96571.08;111583;1232;94148;-80
2023/06/30 13:59:15;;;;;;;3.00;2.70;;;;;;;26.10;48.65;96565.52;111585;1232;94176;-80
2023/06/30 14:01:41;;;;;;;5.60;3.30;;;;;;;26.20;47.83;96561.90;111590;1232;94199;-80
2023/06/30 14:04:08;;;;;;;4.80;3.00;;;;;;;26.36;47.43;96556.98;111612;1232;94171;-80
2023/06/30 14:06:34;;;;;;;3.50;3.00;;;;;;;26.47;47.57;96550.29;111356;1233;94196;-80
2023/06/30 14:09:01;;;;;;;5.30;3.40;;;;;;;26.53;47.14;96551.75;111619;1236;94128;-80
2023/06/30 14:11:27;;;;;;;6.00;3.40;;;;;;;26.56;46.98;96550.66;111563;1232;94171;-80
2023/06/30 14:13:54;;;;;;;4.00;3.20;;;;;;;26.69;46.59;96548.48;111608;1232;94392;-80
2023/06/30 14:16:20;;;;;;;5.50;3.20;;;;;;;26.83;45.65;96546.60;111572;1232;94072;-80
2023/06/30 14:18:46;;;;;;;3.80;2.80;;;;;;;26.92;45.50;96542.74;111570;1233;94181;-80
2023/06/30 14:21:13;;;;;;;4.20;2.90;;;;;;;27.12;45.25;96541.94;111579;1233;94141;-80
2023/06/30 14:23:39;;;;;;;4.30;3.10;;;;;;;27.35;45.05;96540.51;111615;1232;94053;-80
2023/06/30 14:26:05;;;;;;;4.70;2.60;;;;;;;27.56;44.06;96537.16;111610;1233;94170;-80
2023/06/30 14:28:32;;;;;;;5.20;2.80;;;;;;;27.67;43.78;96530.66;111653;1232;94195;-80
2023/06/30 14:30:58;;;;;;;3.50;3.00;;;;;;;27.75;43.46;96527.05;111600;1232;94116;-80
2023/06/30 14:33:24;;;;;;;3.70;3.10;;;;;;;27.80;43.24;96525.48;111592;1232;94175;-81
2023/06/30 14:35:51;;;;;;;5.00;3.10;;;;;;;27.74;42.63;96523.23;110991;1239;94585;-80
2023/06/30 14:38:17;;;;;;;3.40;2.50;;;;;;;27.74;42.22;96521.10;110911;1236;94543;-80
2023/06/30 14:40:43;;;;;;;4.10;2.90;;;;;;;27.74;42.50;96525.70;110972;1239;94611;-80
2023/06/30 14:43:10;;;;;;;2.50;2.30;;;;;;;27.68;41.97;96523.23;111114;1239;94251;-80
2023/06/30 14:45:36;;;;;;;5.20;4.10;;;;;;;27.72;41.67;96523.31;111046;1236;94133;-79
2023/06/30 14:48:02;;;;;;;3.60;2.90;;;;;;;27.77;41.89;96520.58;111015;1236;94194;-80
2023/06/30 14:50:29;;;;;;;4.00;2.80;;;;;;;27.77;42.70;96518.65;111013;1236;94163;-80
2023/06/30 14:52:55;;;;;;;4.40;2.80;;;;;;;27.70;43.12;96517.71;111092;1236;94529;-80
2023/06/30 14:55:22;;;;;;;3.30;2.40;;;;;;;27.63;43.42;96516.52;111074;1236;94149;-80
2023/06/30 14:57:49;;;;;;;3.80;2.90;;;;;;;27.55;43.56;96516.94;110939;1236;94675;-80
2023/06/30 15:00:16;;;;;;;4.10;2.80;;;;;;;27.47;43.55;96512.05;110929;1237;94596;-80
2023/06/30 15:02:42;;;;;;;4.20;2.90;;;;;;;27.44;43.65;96508.69;111019;1236;94210;-80
2023/06/30 15:05:09;;;;;;;3.20;2.90;;;;;;;27.42;43.58;96504.27;110973;1236;94118;-80
2023/06/30 15:07:35;;;;;;;3.50;2.80;;;;;;;27.46;43.36;96502.09;111443;1232;94563;-80
2023/06/30 15:10:02;;;;;;;3.70;2.40;;;;;;;27.48;43.62;96506.54;111558;1232;101300;-80